New Richmond, Indiana
Current Conditions -  °F | °C
As of 9:54 PM on Tuesday 21 Oct 2014 (Local Time) from KLAF Reporting Station
Clear Clear  
Wind Chill: 39°   Ceiling: Unl
Heat Index: 43°   Visibility: 10mi
Dew Point: 38°   Wind: 6mph
Humidity: 82%   Direction: 350°N
Pressure: 30.22"   Gusts: NA
Location:  40.2°N, 86.98°W
Report Text: KLAF 220154Z AUTO 35005KT 10SM CLR 06/03 A3022 RMK AO2 SLP234 T00610033 TSNO
Loading
Personal Weather Stations






























Interactive Weather Map
Tropical Storm Tracking
New forecast layout! Learn more

10-Day Weather Forecast

Advertisements
Track Severe Weather on mobile